Dobrodošli na spletni strani vremenske postaje Senovo. Vse informacije so informativnega značaja, saj vremenska postaja ni del državne mreže meteoroloških postaj. AKTUALNIH OBVESTIL NI.


Sneg/Led Od: 21-02-2018 00:00 Do: 23-02-2018 23:59 Opozorilo za: Sneg/Led Stopnja: Rumena info button
Veter Od: 21-02-2018 00:00 Do: 22-02-2018 23:59 Opozorilo za: Veter Stopnja: Rumena info button

Pogled proti Armezu več informacij Pogled proti Armezu


Lisca več informacij Lisca


Radar strel več informacij blitzortung!


opozorilo za sneg/led več informacij rain snow radar


Obiščite še:

Template documentation
and downloads

And another site



Weather Underground, zgodovina - Tekstovno

Dnevni povzetek za Februar 10, 2017 Enote:  Angleško    Metrično   Obe
« Predhodni Dan
Naslednji Dan »
Dnevni Tedenski Mesečni Letni Po meri
  Višja: Nižja: Povprečje:
Temperatura: TemperatureC °F -0.2 °F 0.4 °F
Točka rosišča: DewpointC °F -3.1 °F -2 °F
Vlažnost: Humidity % 79 % 84 %
Hitrost vetra: WindSpeedKMH mph 0.0 mph 4.8 mph
Sunki vetra: WindSpeedGustKMH mph - -
Veter:- - East
Zračni tlak: PressurehPa in 1024.9 in -
Padavine: 0.0 in    
Historical Graphs
 
 
Tabelarni podarki za Februar 10, 2017
Čas Temperatura Točka rosišča Zračni tlak Veter Hitrost vetra Sunki vetra Vlažnost Intenziteta padavin (urna)
TemperatureC °F DewpointC °F PressurehPa in Calm     Humidity % HourlyPrecipMM in
00:04 0.1 °F -1.9 °F 1026.0 in East 4.8 mph 6.9 mph 86 % 0.0 in
00:09 0.1 °F -1.8 °F 1026.0 in East 5.5 mph 7.9 mph 87 % 0.0 in
00:14 0.1 °F -1.8 °F 1026.0 in East 5.5 mph 7.9 mph 87 % 0.0 in
00:19 0.0 °F -1.9 °F 1026.0 in East 5.0 mph 6.9 mph 87 % 0.0 in
00:24 0.0 °F -1.9 °F 1026.0 in East 5.3 mph 7.9 mph 87 % 0.0 in
00:29 0.0 °F -1.9 °F 1026.0 in East 5.1 mph 7.9 mph 87 % 0.0 in
00:34 0.0 °F -1.9 °F 1026.0 in East 3.7 mph 5.8 mph 87 % 0.0 in
00:39 0.0 °F -1.9 °F 1026.0 in ESE 3.2 mph 7.2 mph 87 % 0.0 in
00:44 0.0 °F -1.9 °F 1026.0 in East 3.2 mph 7.2 mph 87 % 0.0 in
00:49 0.0 °F -1.9 °F 1026.0 in East 3.1 mph 6.1 mph 87 % 0.0 in
00:54 0.0 °F -1.9 °F 1026.0 in East 2.7 mph 5.0 mph 87 % 0.0 in
00:59 0.0 °F -1.9 °F 1026.0 in ESE 3.4 mph 7.9 mph 87 % 0.0 in
01:04 0.0 °F -1.9 °F 1026.0 in ESE 4.8 mph 8.7 mph 87 % 0.0 in
01:10 0.0 °F -1.9 °F 1024.9 in ESE 5.1 mph 8.7 mph 87 % 0.0 in
01:15 0.0 °F -1.9 °F 1024.9 in ESE 5.1 mph 7.9 mph 87 % 0.0 in
01:20 0.0 °F -1.9 °F 1024.9 in ESE 5.8 mph 9.0 mph 87 % 0.0 in
01:25 0.0 °F -1.9 °F 1024.9 in ESE 6.0 mph 9.0 mph 87 % 0.0 in
01:30 0.0 °F -1.9 °F 1024.9 in ESE 6.1 mph 9.7 mph 87 % 0.0 in
01:35 0.0 °F -1.9 °F 1024.9 in East 5.8 mph 9.7 mph 87 % 0.0 in
01:40 0.0 °F -1.8 °F 1024.9 in ENE 5.5 mph 11.9 mph 88 % 0.0 in
01:45 0.0 °F -1.8 °F 1024.9 in ENE 5.0 mph 11.9 mph 88 % 0.0 in
01:51 0.0 °F -1.8 °F 1024.9 in East 4.0 mph 6.9 mph 88 % 0.0 in
01:56 0.0 °F -1.8 °F 1026.0 in East 3.7 mph 6.9 mph 88 % 0.0 in
02:01 0.0 °F -1.8 °F 1026.0 in ENE 4.3 mph 7.9 mph 88 % 0.0 in
02:06 0.0 °F -1.8 °F 1026.0 in ENE 5.6 mph 10.1 mph 88 % 0.0 in
02:11 0.0 °F -1.8 °F 1026.0 in ENE 6.9 mph 12.2 mph 88 % 0.0 in
02:16 -0.1 °F -1.8 °F 1026.0 in ENE 6.8 mph 12.2 mph 88 % 0.0 in
02:22 0.0 °F -1.8 °F 1026.0 in East 6.0 mph 12.2 mph 88 % 0.0 in
02:27 -0.1 °F -1.8 °F 1026.0 in East 5.8 mph 12.2 mph 88 % 0.0 in
02:32 -0.1 °F -1.8 °F 1026.0 in ENE 6.1 mph 10.5 mph 88 % 0.0 in
02:37 -0.1 °F -1.8 °F 1026.0 in East 6.0 mph 10.5 mph 88 % 0.0 in
02:42 -0.1 °F -1.7 °F 1026.0 in ENE 6.6 mph 12.6 mph 89 % 0.0 in
02:47 -0.1 °F -1.7 °F 1026.0 in ENE 7.2 mph 12.6 mph 89 % 0.0 in
02:52 -0.1 °F -1.7 °F 1026.0 in ENE 6.4 mph 10.1 mph 89 % 0.0 in
02:56 -0.1 °F -1.7 °F 1026.0 in ENE 5.8 mph 10.1 mph 89 % 0.0 in
03:01 -0.1 °F -1.7 °F 1026.0 in ENE 5.3 mph 9.3 mph 89 % 0.0 in
03:06 -0.1 °F -1.7 °F 1026.0 in East 5.6 mph 10.1 mph 89 % 0.0 in
03:12 -0.1 °F -1.7 °F 1024.9 in ENE 5.6 mph 10.1 mph 89 % 0.0 in
03:17 0.0 °F -1.6 °F 1024.9 in ENE 4.7 mph 6.4 mph 89 % 0.0 in
03:19 0.0 °F -1.6 °F 1024.9 in ENE 4.3 mph 6.4 mph 89 % 0.0 in
03:24 0.0 °F -1.6 °F 1026.0 in ENE 3.9 mph 6.4 mph 89 % 0.0 in
03:29 0.0 °F -1.8 °F 1026.0 in ENE 3.5 mph 6.9 mph 88 % 0.0 in
03:34 0.0 °F -1.8 °F 1026.0 in East 3.9 mph 8.7 mph 88 % 0.0 in
03:39 0.0 °F -1.8 °F 1026.0 in East 4.5 mph 8.7 mph 88 % 0.0 in
03:44 0.0 °F -1.8 °F 1026.0 in ENE 5.3 mph 7.2 mph 88 % 0.0 in
03:50 0.0 °F -1.8 °F 1026.0 in East 5.5 mph 10.1 mph 88 % 0.0 in
03:55 0.0 °F -1.8 °F 1024.9 in East 5.0 mph 10.1 mph 88 % 0.0 in
04:00 0.0 °F -1.8 °F 1024.9 in East 4.8 mph 7.6 mph 88 % 0.0 in
04:05 0.0 °F -1.8 °F 1024.9 in East 5.3 mph 9.0 mph 88 % 0.0 in
04:10 0.1 °F -1.7 °F 1026.0 in East 5.5 mph 10.1 mph 88 % 0.0 in
04:15 0.0 °F -1.8 °F 1026.0 in East 5.1 mph 10.1 mph 88 % 0.0 in
04:20 0.0 °F -1.8 °F 1026.0 in East 5.1 mph 7.9 mph 88 % 0.0 in
04:25 0.0 °F -1.8 °F 1026.0 in ENE 5.1 mph 6.9 mph 88 % 0.0 in
04:30 0.0 °F -1.8 °F 1026.0 in East 4.7 mph 6.9 mph 88 % 0.0 in
04:35 0.0 °F -1.8 °F 1026.0 in East 4.2 mph 6.9 mph 88 % 0.0 in
04:40 0.0 °F -1.8 °F 1024.9 in East 4.7 mph 7.6 mph 88 % 0.0 in
04:45 0.0 °F -1.8 °F 1024.9 in East 5.3 mph 7.9 mph 88 % 0.0 in
04:50 0.0 °F -1.8 °F 1024.9 in East 5.5 mph 9.7 mph 88 % 0.0 in
04:55 0.0 °F -1.8 °F 1026.0 in ENE 5.0 mph 9.7 mph 88 % 0.0 in
05:00 0.0 °F -1.8 °F 1026.0 in ENE 4.2 mph 7.9 mph 88 % 0.0 in
05:05 0.0 °F -1.8 °F 1026.0 in East 4.3 mph 7.9 mph 88 % 0.0 in
05:10 0.0 °F -1.8 °F 1026.0 in East 4.7 mph 10.1 mph 88 % 0.0 in
05:15 0.0 °F -1.8 °F 1026.0 in East 5.3 mph 10.1 mph 88 % 0.0 in
05:20 -0.1 °F -1.8 °F 1026.0 in East 6.3 mph 10.5 mph 88 % 0.0 in
05:25 -0.1 °F -1.8 °F 1026.0 in ENE 7.2 mph 13.7 mph 88 % 0.0 in
05:30 -0.1 °F -1.7 °F 1026.0 in East 7.1 mph 13.7 mph 89 % 0.0 in
05:35 -0.1 °F -1.7 °F 1026.0 in ENE 6.1 mph 9.3 mph 89 % 0.0 in
05:40 -0.2 °F -1.8 °F 1024.9 in ENE 5.6 mph 10.5 mph 89 % 0.0 in
05:45 -0.2 °F -1.8 °F 1024.9 in ENE 5.5 mph 10.5 mph 89 % 0.0 in
05:50 -0.2 °F -1.8 °F 1024.9 in East 5.1 mph 9.3 mph 89 % 0.0 in
05:55 -0.2 °F -1.8 °F 1026.0 in East 5.5 mph 13.0 mph 89 % 0.0 in
06:00 -0.2 °F -1.8 °F 1026.0 in East 6.0 mph 13.0 mph 89 % 0.0 in
06:05 -0.2 °F -1.8 °F 1026.0 in ESE 6.6 mph 9.7 mph 89 % 0.0 in
06:10 -0.2 °F -1.8 °F 1026.0 in ESE 6.9 mph 11.6 mph 89 % 0.0 in
06:15 -0.2 °F -1.8 °F 1026.0 in East 6.3 mph 11.6 mph 89 % 0.0 in
06:20 -0.2 °F -1.8 °F 1026.0 in ESE 6.3 mph 11.1 mph 89 % 0.0 in
06:25 -0.2 °F -1.8 °F 1024.9 in East 6.6 mph 11.1 mph 89 % 0.0 in
06:30 -0.2 °F -1.8 °F 1024.9 in East 5.8 mph 10.5 mph 89 % 0.0 in
06:35 -0.2 °F -1.8 °F 1024.9 in East 5.0 mph 9.0 mph 89 % 0.0 in
06:40 -0.2 °F -1.8 °F 1024.9 in East 5.5 mph 10.1 mph 89 % 0.0 in
06:45 -0.2 °F -1.8 °F 1024.9 in ENE 5.8 mph 10.1 mph 89 % 0.0 in
06:50 -0.2 °F -1.8 °F 1024.9 in East 5.3 mph 10.1 mph 89 % 0.0 in
06:55 -0.1 °F -1.7 °F 1024.9 in ESE 5.5 mph 9.7 mph 89 % 0.0 in
07:00 -0.1 °F -1.7 °F 1024.9 in East 6.9 mph 13.7 mph 89 % 0.0 in
07:05 -0.1 °F -1.7 °F 1024.9 in East 6.1 mph 13.7 mph 89 % 0.0 in
07:09 -0.1 °F -1.8 °F 1026.0 in ESE 5.3 mph 7.6 mph 88 % 0.0 in
07:14 -0.1 °F -1.8 °F 1026.0 in ESE 5.1 mph 9.7 mph 88 % 0.0 in
07:19 -0.1 °F -1.8 °F 1026.0 in East 4.3 mph 9.7 mph 88 % 0.0 in
07:24 0.0 °F -1.8 °F 1026.0 in East 3.5 mph 7.9 mph 88 % 0.0 in
07:29 0.0 °F -1.8 °F 1026.0 in ENE 4.8 mph 7.9 mph 88 % 0.0 in
07:34 0.0 °F -1.8 °F 1026.0 in ENE 5.0 mph 7.6 mph 88 % 0.0 in
07:39 0.1 °F -1.7 °F 1027.0 in ENE 5.1 mph 9.3 mph 88 % 0.0 in
07:44 0.1 °F -1.8 °F 1027.0 in ENE 5.6 mph 9.3 mph 87 % 0.0 in
07:49 0.1 °F -1.8 °F 1027.0 in ENE 4.5 mph 6.1 mph 87 % 0.0 in
07:54 0.1 °F -1.8 °F 1024.9 in East 3.9 mph 6.1 mph 87 % 0.0 in
07:59 0.1 °F -1.8 °F 1024.9 in East 4.0 mph 6.1 mph 87 % 0.0 in
08:04 0.1 °F -1.8 °F 1024.9 in East 4.2 mph 7.9 mph 87 % 0.0 in
08:09 0.1 °F -1.8 °F 1026.0 in East 4.2 mph 7.9 mph 87 % 0.0 in
08:14 0.2 °F -1.7 °F 1026.0 in East 3.4 mph 5.8 mph 87 % 0.0 in
08:19 0.2 °F -1.7 °F 1026.0 in ENE 3.4 mph 6.9 mph 87 % 0.0 in
08:24 0.2 °F -1.7 °F 1026.0 in ENE 4.2 mph 6.9 mph 87 % 0.0 in
08:30 0.2 °F -1.7 °F 1026.0 in ENE 4.2 mph 6.9 mph 87 % 0.0 in
08:35 0.2 °F -1.7 °F 1026.0 in ENE 3.7 mph 5.5 mph 87 % 0.0 in
08:40 0.2 °F -1.7 °F 1026.0 in ENE 3.7 mph 6.1 mph 87 % 0.0 in
08:45 0.3 °F -1.6 °F 1026.0 in ENE 3.7 mph 6.1 mph 87 % 0.0 in
08:50 0.3 °F -1.6 °F 1026.0 in East 3.9 mph 9.7 mph 87 % 0.0 in
08:55 0.3 °F -1.6 °F 1024.9 in East 4.7 mph 9.7 mph 87 % 0.0 in
09:00 0.3 °F -1.6 °F 1024.9 in East 5.5 mph 9.7 mph 87 % 0.0 in
09:05 0.3 °F -1.6 °F 1024.9 in ENE 5.0 mph 10.1 mph 87 % 0.0 in
09:10 0.3 °F -1.6 °F 1024.9 in East 5.5 mph 10.5 mph 87 % 0.0 in
09:15 0.3 °F -1.6 °F 1024.9 in East 6.1 mph 9.7 mph 87 % 0.0 in
09:20 0.3 °F -1.6 °F 1024.9 in East 5.8 mph 9.0 mph 87 % 0.0 in
09:25 0.3 °F -1.6 °F 1024.9 in East 6.1 mph 10.1 mph 87 % 0.0 in
09:30 0.3 °F -1.6 °F 1024.9 in ENE 5.6 mph 10.1 mph 87 % 0.0 in
09:35 0.3 °F -1.6 °F 1024.9 in ENE 5.0 mph 8.7 mph 87 % 0.0 in
09:40 0.3 °F -1.6 °F 1024.9 in East 6.1 mph 10.1 mph 87 % 0.0 in
09:45 0.3 °F -1.6 °F 1024.9 in East 7.1 mph 10.5 mph 87 % 0.0 in
09:50 0.3 °F -1.6 °F 1024.9 in East 7.1 mph 10.5 mph 87 % 0.0 in
09:55 0.3 °F -1.6 °F 1024.9 in ESE 6.8 mph 10.1 mph 87 % 0.0 in
10:00 0.3 °F -1.6 °F 1024.9 in ESE 6.4 mph 10.1 mph 87 % 0.0 in
10:05 0.3 °F -1.4 °F 1024.9 in East 6.4 mph 11.6 mph 88 % 0.0 in
10:10 0.3 °F -1.4 °F 1026.0 in East 6.4 mph 11.6 mph 88 % 0.0 in
10:15 0.3 °F -1.4 °F 1026.0 in East 5.5 mph 10.5 mph 88 % 0.0 in
10:20 0.3 °F -1.4 °F 1026.0 in East 5.0 mph 8.7 mph 88 % 0.0 in
10:25 0.3 °F -1.4 °F 1024.9 in East 5.0 mph 8.7 mph 88 % 0.0 in
10:30 0.3 °F -1.4 °F 1024.9 in East 5.1 mph 8.7 mph 88 % 0.0 in
10:35 0.3 °F -1.4 °F 1024.9 in East 5.1 mph 7.9 mph 88 % 0.0 in
10:40 0.3 °F -1.4 °F 1026.0 in East 5.5 mph 9.7 mph 88 % 0.0 in
10:45 0.3 °F -1.4 °F 1026.0 in East 6.0 mph 10.1 mph 88 % 0.0 in
10:50 0.3 °F -1.4 °F 1026.0 in East 6.0 mph 10.1 mph 88 % 0.0 in
10:55 0.4 °F -1.3 °F 1026.0 in East 6.0 mph 9.0 mph 88 % 0.0 in
11:00 0.4 °F -1.3 °F 1026.0 in East 6.0 mph 10.1 mph 88 % 0.0 in
11:05 0.4 °F -1.3 °F 1026.0 in East 6.1 mph 12.6 mph 88 % 0.0 in
11:10 0.4 °F -1.3 °F 1026.0 in East 6.4 mph 12.6 mph 88 % 0.0 in
11:15 0.4 °F -1.3 °F 1026.0 in East 6.3 mph 11.9 mph 88 % 0.0 in
11:20 0.5 °F -1.3 °F 1026.0 in East 6.0 mph 14.8 mph 88 % 0.0 in
11:25 0.5 °F -1.4 °F 1026.0 in East 6.1 mph 14.8 mph 87 % 0.0 in
11:30 0.5 °F -1.4 °F 1026.0 in East 6.4 mph 10.8 mph 87 % 0.0 in
11:36 0.5 °F -1.4 °F 1026.0 in East 6.4 mph 10.8 mph 87 % 0.0 in
11:41 0.5 °F -1.4 °F 1026.0 in East 6.3 mph 10.5 mph 87 % 0.0 in
11:46 0.6 °F -1.3 °F 1026.0 in East 6.9 mph 12.2 mph 87 % 0.0 in
11:51 0.6 °F -1.3 °F 1026.0 in East 7.2 mph 12.2 mph 87 % 0.0 in
11:56 0.6 °F -1.3 °F 1026.0 in East 6.8 mph 11.1 mph 87 % 0.0 in
12:01 0.6 °F -1.3 °F 1026.0 in East 6.1 mph 11.1 mph 87 % 0.0 in
12:06 0.7 °F -1.2 °F 1026.0 in East 6.1 mph 11.6 mph 87 % 0.0 in
12:11 0.7 °F -1.4 °F 1027.0 in East 6.1 mph 11.6 mph 86 % 0.0 in
12:16 0.9 °F -1.2 °F 1027.0 in ENE 5.1 mph 9.0 mph 86 % 0.0 in
12:18 0.9 °F -1.3 °F 1027.0 in ENE 5.0 mph 9.0 mph 85 % 0.0 in
12:23 1.0 °F -1.2 °F 1026.0 in ENE 5.0 mph 10.1 mph 85 % 0.0 in
12:28 1.2 °F -1.1 °F 1026.0 in East 5.6 mph 10.1 mph 85 % 0.0 in
12:33 1.3 °F -1.1 °F 1026.0 in East 6.6 mph 10.5 mph 84 % 0.0 in
12:38 1.4 °F -1.0 °F 1026.0 in ESE 7.4 mph 13.7 mph 84 % 0.0 in
12:43 1.5 °F -1.1 °F 1026.0 in ESE 8.0 mph 13.7 mph 83 % 0.0 in
12:48 1.6 °F -1.0 °F 1026.0 in ESE 8.4 mph 13.7 mph 83 % 0.0 in
12:53 1.7 °F -1.1 °F 1026.0 in ESE 7.2 mph 12.6 mph 82 % 0.0 in
12:58 1.7 °F -1.1 °F 1026.0 in ESE 7.4 mph 12.2 mph 82 % 0.0 in
13:03 1.7 °F -1.2 °F 1026.0 in ESE 8.5 mph 12.2 mph 81 % 0.0 in
13:08 1.7 °F -1.2 °F 1026.0 in ESE 8.5 mph 12.6 mph 81 % 0.0 in
13:13 1.6 °F -1.5 °F 1026.0 in ESE 6.6 mph 12.6 mph 80 % 0.0 in
13:18 1.6 °F -1.5 °F 1026.0 in ESE 6.4 mph 13.0 mph 80 % 0.0 in
13:22 1.5 °F -1.6 °F 1026.0 in ESE 6.9 mph 13.0 mph 80 % 0.0 in
13:27 1.5 °F -1.7 °F 1026.0 in ESE 6.0 mph 12.2 mph 79 % 0.0 in
13:32 1.5 °F -1.6 °F 1026.0 in ESE 6.1 mph 12.2 mph 80 % 0.0 in
13:37 1.5 °F -1.6 °F 1026.0 in ESE 6.0 mph 10.5 mph 80 % 0.0 in
13:42 1.5 °F -1.6 °F 1026.0 in ESE 5.8 mph 10.8 mph 80 % 0.0 in
13:47 1.5 °F -1.6 °F 1026.0 in ESE 6.3 mph 11.9 mph 80 % 0.0 in
13:52 1.4 °F -1.8 °F 1026.0 in ESE 6.3 mph 11.9 mph 79 % 0.0 in
13:57 1.4 °F -1.8 °F 1026.0 in East 6.3 mph 9.7 mph 79 % 0.0 in
14:02 1.4 °F -1.8 °F 1026.0 in East 6.6 mph 9.7 mph 79 % 0.0 in
14:07 1.4 °F -1.8 °F 1026.0 in ESE 6.6 mph 9.7 mph 79 % 0.0 in
14:12 1.4 °F -1.8 °F 1026.0 in ESE 5.6 mph 9.3 mph 79 % 0.0 in
14:17 1.4 °F -1.8 °F 1026.0 in East 5.3 mph 9.7 mph 79 % 0.0 in
14:22 1.4 °F -1.7 °F 1026.0 in ESE 7.1 mph 10.8 mph 80 % 0.0 in
14:27 1.4 °F -1.7 °F 1026.0 in ESE 7.1 mph 11.9 mph 80 % 0.0 in
14:32 1.4 °F -1.7 °F 1026.0 in ESE 7.2 mph 13.7 mph 80 % 0.0 in
14:37 1.5 °F -1.6 °F 1026.0 in ESE 7.7 mph 13.7 mph 80 % 0.0 in
14:42 1.4 °F -1.7 °F 1026.0 in ESE 6.8 mph 11.9 mph 80 % 0.0 in
14:47 1.4 °F -1.7 °F 1026.0 in ESE 7.6 mph 11.6 mph 80 % 0.0 in
14:52 1.4 °F -1.7 °F 1026.0 in ESE 8.2 mph 13.7 mph 80 % 0.0 in
14:57 1.3 °F -1.9 °F 1026.0 in ESE 7.6 mph 13.7 mph 79 % 0.0 in
15:02 1.3 °F -1.9 °F 1026.0 in ESE 6.4 mph 10.5 mph 79 % 0.0 in
15:07 1.3 °F -1.9 °F 1026.0 in ESE 6.6 mph 9.7 mph 79 % 0.0 in
15:12 1.3 °F -1.9 °F 1026.0 in ESE 6.8 mph 9.7 mph 79 % 0.0 in
15:17 1.2 °F -2.1 °F 1026.0 in ESE 6.1 mph 10.8 mph 79 % 0.0 in
15:22 1.2 °F -1.9 °F 1026.0 in ESE 5.8 mph 10.8 mph 80 % 0.0 in
15:27 1.2 °F -1.9 °F 1026.0 in ESE 6.1 mph 10.8 mph 80 % 0.0 in
15:32 1.1 °F -1.9 °F 1026.0 in ESE 6.4 mph 10.8 mph 80 % 0.0 in
15:37 1.1 °F -1.9 °F 1027.0 in ESE 6.4 mph 10.5 mph 80 % 0.0 in
15:42 1.1 °F -1.9 °F 1027.0 in ESE 6.4 mph 9.7 mph 80 % 0.0 in
15:47 1.1 °F -1.9 °F 1027.0 in ESE 7.2 mph 11.6 mph 80 % 0.0 in
15:52 1.0 °F -2.1 °F 1026.0 in ESE 7.4 mph 11.6 mph 80 % 0.0 in
15:57 1.0 °F -2.1 °F 1026.0 in ESE 6.6 mph 10.1 mph 80 % 0.0 in
16:02 1.0 °F -2.1 °F 1026.0 in ESE 5.8 mph 11.6 mph 80 % 0.0 in
16:07 0.9 °F -2.0 °F 1026.0 in ESE 6.4 mph 13.0 mph 81 % 0.0 in
16:12 0.9 °F -2.0 °F 1026.0 in East 7.1 mph 13.0 mph 81 % 0.0 in
16:17 0.9 °F -2.0 °F 1026.0 in East 6.3 mph 11.1 mph 81 % 0.0 in
16:22 0.8 °F -2.1 °F 1026.0 in East 5.6 mph 9.0 mph 81 % 0.0 in
16:27 0.8 °F -2.1 °F 1026.0 in ESE 5.6 mph 9.3 mph 81 % 0.0 in
16:32 0.7 °F -2.2 °F 1026.0 in ESE 5.6 mph 9.3 mph 81 % 0.0 in
16:35 0.7 °F -2.2 °F 1026.0 in ESE 5.5 mph 9.3 mph 81 % 0.0 in
16:40 0.7 °F -2.2 °F 1024.9 in East 4.5 mph 7.6 mph 81 % 0.0 in
16:45 0.7 °F -2.2 °F 1024.9 in ESE 5.1 mph 6.9 mph 81 % 0.0 in
16:50 0.6 °F -2.3 °F 1024.9 in ESE 5.6 mph 9.0 mph 81 % 0.0 in
16:55 0.6 °F -2.3 °F 1024.9 in ESE 5.1 mph 9.0 mph 81 % 0.0 in
17:00 0.6 °F -2.3 °F 1024.9 in ESE 5.6 mph 10.1 mph 81 % 0.0 in
17:05 0.6 °F -2.3 °F 1024.9 in ESE 6.4 mph 10.1 mph 81 % 0.0 in
17:10 0.6 °F -2.3 °F 1026.0 in ESE 6.3 mph 10.1 mph 81 % 0.0 in
17:15 0.6 °F -2.3 °F 1026.0 in East 5.6 mph 7.9 mph 81 % 0.0 in
17:20 0.6 °F -2.3 °F 1026.0 in East 4.5 mph 7.9 mph 81 % 0.0 in
17:25 0.6 °F -2.3 °F 1024.9 in ESE 5.0 mph 9.3 mph 81 % 0.0 in
17:30 0.5 °F -2.4 °F 1024.9 in ESE 6.1 mph 10.1 mph 81 % 0.0 in
17:35 0.5 °F -2.6 °F 1024.9 in ESE 5.6 mph 10.1 mph 80 % 0.0 in
17:40 0.4 °F -2.5 °F 1026.0 in ESE 5.3 mph 9.0 mph 81 % 0.0 in
17:45 0.4 °F -2.5 °F 1026.0 in ESE 4.5 mph 7.6 mph 81 % 0.0 in
17:50 0.4 °F -2.5 °F 1026.0 in ESE 4.5 mph 7.9 mph 81 % 0.0 in
17:55 0.4 °F -2.5 °F 1026.0 in ESE 5.1 mph 11.6 mph 81 % 0.0 in
18:00 0.4 °F -2.7 °F 1026.0 in ESE 4.7 mph 11.6 mph 80 % 0.0 in
18:05 0.4 °F -2.7 °F 1026.0 in ESE 4.5 mph 9.0 mph 80 % 0.0 in
18:08 0.4 °F -2.7 °F 1027.0 in ESE 4.2 mph 9.0 mph 80 % 0.0 in
18:10 0.4 °F -2.7 °F 1027.0 in ESE 3.7 mph 9.0 mph 80 % 0.0 in
18:14 0.4 °F -2.5 °F 1027.0 in ESE 3.4 mph 5.8 mph 81 % 0.0 in
18:15 0.4 °F -2.5 °F 1027.0 in ESE 3.4 mph 5.8 mph 81 % 0.0 in
18:20 0.4 °F -2.5 °F 1027.0 in ESE 4.2 mph 7.9 mph 81 % 0.0 in
18:22 0.4 °F -2.5 °F 1027.0 in ESE 4.3 mph 7.9 mph 81 % 0.0 in
18:25 0.4 °F -2.5 °F 1026.0 in ESE 4.5 mph 7.9 mph 81 % 0.0 in
18:30 0.3 °F -2.6 °F 1026.0 in ESE 3.9 mph 6.9 mph 81 % 0.0 in
18:31 0.3 °F -2.6 °F 1026.0 in ESE 3.9 mph 6.9 mph 81 % 0.0 in
18:36 0.3 °F -2.6 °F 1026.0 in ESE 3.7 mph 6.1 mph 81 % 0.0 in
18:38 0.3 °F -2.6 °F 1027.0 in ESE 2.9 mph 6.1 mph 81 % 0.0 in
18:43 0.3 °F -2.6 °F 1027.0 in ESE 3.4 mph 9.3 mph 81 % 0.0 in
18:48 0.3 °F -2.6 °F 1027.0 in ESE 4.2 mph 9.3 mph 81 % 0.0 in
18:49 0.3 °F -2.6 °F 1027.0 in ESE 4.2 mph 9.3 mph 81 % 0.0 in
18:53 0.3 °F -2.6 °F 1026.0 in ESE 4.0 mph 5.5 mph 81 % 0.0 in
18:58 0.3 °F -2.6 °F 1026.0 in ESE 4.3 mph 6.9 mph 81 % 0.0 in
19:03 0.3 °F -2.6 °F 1026.0 in ESE 4.5 mph 6.9 mph 81 % 0.0 in
19:08 0.3 °F -2.6 °F 1026.0 in SE 4.0 mph 6.1 mph 81 % 0.0 in
19:13 0.3 °F -2.6 °F 1026.0 in SE 3.7 mph 6.1 mph 81 % 0.0 in
19:18 0.3 °F -2.6 °F 1026.0 in ESE 4.2 mph 6.4 mph 81 % 0.0 in
19:23 0.3 °F -2.6 °F 1026.0 in ESE 4.7 mph 6.4 mph 81 % 0.0 in
19:28 0.3 °F -2.6 °F 1026.0 in ESE 5.3 mph 9.7 mph 81 % 0.0 in
19:33 0.2 °F -2.7 °F 1026.0 in ESE 5.0 mph 9.7 mph 81 % 0.0 in
19:38 0.2 °F -2.7 °F 1026.0 in ESE 4.0 mph 7.9 mph 81 % 0.0 in
19:43 0.2 °F -2.7 °F 1026.0 in ESE 3.5 mph 6.1 mph 81 % 0.0 in
19:48 0.2 °F -2.7 °F 1026.0 in ESE 3.5 mph 6.9 mph 81 % 0.0 in
19:54 0.2 °F -2.7 °F 1027.0 in ESE 4.0 mph 6.9 mph 81 % 0.0 in
19:59 0.2 °F -2.7 °F 1027.0 in ESE 4.5 mph 6.1 mph 81 % 0.0 in
20:04 0.2 °F -2.7 °F 1027.0 in ESE 4.5 mph 6.1 mph 81 % 0.0 in
20:09 0.2 °F -2.7 °F 1026.0 in East 4.5 mph 6.1 mph 81 % 0.0 in
20:14 0.2 °F -2.7 °F 1026.0 in East 3.5 mph 6.1 mph 81 % 0.0 in
20:19 0.2 °F -2.8 °F 1026.0 in East 3.2 mph 5.5 mph 80 % 0.0 in
20:24 0.2 °F -2.8 °F 1026.0 in East 2.9 mph 5.5 mph 80 % 0.0 in
20:29 0.2 °F -2.8 °F 1026.0 in East 2.9 mph 5.5 mph 80 % 0.0 in
20:34 0.2 °F -2.8 °F 1026.0 in East 1.9 mph 5.5 mph 80 % 0.0 in
20:39 0.1 °F -2.9 °F 1026.0 in East 0.3 mph 5.0 mph 80 % 0.0 in
20:44 0.1 °F -2.9 °F 1026.0 in ESE 1.4 mph 5.5 mph 80 % 0.0 in
20:49 0.1 °F -2.9 °F 1026.0 in ESE 2.4 mph 5.5 mph 80 % 0.0 in
20:54 0.1 °F -2.9 °F 1026.0 in ESE 2.1 mph 5.0 mph 80 % 0.0 in
20:59 0.1 °F -2.9 °F 1026.0 in ESE 2.3 mph 5.0 mph 80 % 0.0 in
21:04 0.1 °F -2.9 °F 1026.0 in ESE 2.4 mph 4.7 mph 80 % 0.0 in
21:09 0.1 °F -2.9 °F 1026.0 in ESE 2.4 mph 4.7 mph 80 % 0.0 in
21:14 0.1 °F -2.9 °F 1026.0 in ESE 1.8 mph 4.7 mph 80 % 0.0 in
21:19 0.1 °F -2.9 °F 1026.0 in ESE 1.6 mph 4.3 mph 80 % 0.0 in
21:24 0.1 °F -2.9 °F 1026.0 in ESE 1.9 mph 4.3 mph 80 % 0.0 in
21:29 0.1 °F -2.9 °F 1026.0 in East 2.4 mph 4.7 mph 80 % 0.0 in
21:34 0.1 °F -2.9 °F 1026.0 in East 2.3 mph 4.7 mph 80 % 0.0 in
21:39 0.1 °F -2.9 °F 1026.0 in ESE 1.4 mph 4.3 mph 80 % 0.0 in
21:44 0.1 °F -2.9 °F 1026.0 in ESE 0.8 mph 3.2 mph 80 % 0.0 in
21:49 0.1 °F -2.9 °F 1026.0 in ESE 0.8 mph 3.2 mph 80 % 0.0 in
21:54 0.1 °F -2.9 °F 1026.0 in ESE 1.1 mph 4.7 mph 80 % 0.0 in
21:59 0.1 °F -2.9 °F 1026.0 in ESE 2.3 mph 4.7 mph 80 % 0.0 in
22:04 0.1 °F -2.9 °F 1026.0 in ESE 2.3 mph 4.7 mph 80 % 0.0 in
22:09 0.1 °F -2.9 °F 1026.0 in ESE 0.5 mph 4.0 mph 80 % 0.0 in
22:14 0.1 °F -2.9 °F 1026.0 in Calm     80 % 0.0 in
22:19 0.1 °F -2.9 °F 1026.0 in Calm     80 % 0.0 in
22:24 0.1 °F -2.9 °F 1026.0 in Calm     80 % 0.0 in
22:29 0.1 °F -2.9 °F 1026.0 in Calm     80 % 0.0 in
22:34 0.0 °F -3.1 °F 1026.0 in Calm     80 % 0.0 in
22:39 0.0 °F -3.1 °F 1026.0 in Calm     80 % 0.0 in
22:44 0.0 °F -3.1 °F 1026.0 in Calm     80 % 0.0 in
22:49 0.0 °F -3.1 °F 1026.0 in Calm     80 % 0.0 in
22:54 0.0 °F -3.1 °F 1026.0 in Calm     80 % 0.0 in
22:59 0.0 °F -2.9 °F 1026.0 in Calm     81 % 0.0 in
23:05 0.0 °F -2.9 °F 1026.0 in ENE 0.2 mph 3.2 mph 81 % 0.0 in
23:10 -0.1 °F -2.9 °F 1026.0 in ENE 0.6 mph 3.5 mph 81 % 0.0 in
23:15 -0.1 °F -2.9 °F 1026.0 in ENE 1.1 mph 3.5 mph 81 % 0.0 in
23:20 -0.1 °F -3.1 °F 1026.0 in ENE 0.6 mph 2.6 mph 80 % 0.0 in
23:25 -0.1 °F -2.9 °F 1026.0 in East 0.2 mph 1.8 mph 81 % 0.0 in
23:30 -0.1 °F -2.9 °F 1026.0 in Calm   2.1 mph 81 % 0.0 in
23:35 -0.1 °F -2.9 °F 1026.0 in ESE 1.0 mph 4.0 mph 81 % 0.0 in
23:40 0.0 °F -2.9 °F 1026.0 in ESE 2.3 mph 4.7 mph 81 % 0.0 in
23:45 0.0 °F -2.9 °F 1026.0 in SE 2.7 mph 4.7 mph 81 % 0.0 in
23:50 0.0 °F -2.9 °F 1026.0 in ESE 3.5 mph 6.1 mph 81 % 0.0 in
23:55 0.0 °F -3.1 °F 1026.0 in ESE 3.5 mph 6.1 mph 80 % 0.0 in
Vremenska postaja Senovo
Podatki zbrani iz Weather Underground - 3 mb

Script developed by  Jim McMurry - jmcmurry@mwt.net Adapted for the template by  Wim van der Kuil - Leuven-Template.eu

Vremenski podatki so objavljeni na:

European Weather Network

WeatherCloud

Weather Underground

AWEKAS

HAMweather, WeatherForYou, PWS Weather

MapView

Geostik

Slovenia weather network

Oprema, ki se uporablja:

Vremenski program
Cumulus

Vremenski server
Asus

Cumulus

Asus